Time;durP1;ratioP1;P1;durP2;ratioP2;P2;SDS_P1;SDS_P2;PMS_P1;PMS_P2;Temp;Humidity;BMP_temperature;BMP_pressure;BME280_temperature;BME280_humidity;BME280_pressure;Samples;Min_cycle;Max_cycle;Signal;HPM_P1;HPM_P2
2023/04/12 00:02:11;;;;;;;12.25;5.22;;;1.10;99.90;;;2.05;100.00;100187.03;5068265;28;20085;-73
2023/04/12 00:04:38;;;;;;;10.38;5.05;;;1.10;99.90;;;2.07;100.00;100171.56;5058690;28;20124;-73
2023/04/12 00:07:04;;;;;;;18.33;6.05;;;1.20;99.90;;;2.09;100.00;100164.16;5059352;28;20039;-74
2023/04/12 00:09:31;;;;;;;12.60;5.28;;;1.20;99.90;;;2.18;100.00;100162.28;5062374;28;20085;-73
2023/04/12 00:12:00;;;;;;;9.65;5.45;;;1.20;99.90;;;2.15;100.00;100155.41;5062593;28;20395;-73
2023/04/12 00:14:27;;;;;;;11.60;4.85;;;1.20;99.90;;;2.15;100.00;100152.72;5055810;28;20033;-73
2023/04/12 00:16:53;;;;;;;9.75;5.55;;;1.20;99.90;;;2.13;100.00;100138.59;5067283;28;20036;-73
2023/04/12 00:19:19;;;;;;;13.30;5.25;;;1.30;99.90;;;2.24;100.00;100139.22;5080995;28;20045;-73
2023/04/12 00:21:45;;;;;;;13.00;5.72;;;1.30;99.90;;;2.22;100.00;100127.78;5056890;28;20042;-73
2023/04/12 00:24:12;;;;;;;10.82;5.63;;;1.30;99.90;;;2.35;100.00;100133.44;5061512;28;20044;-73
2023/04/12 00:26:37;;;;;;;14.73;5.80;;;1.40;99.90;;;2.38;100.00;100118.81;5065356;28;20032;-74
2023/04/12 00:29:04;;;;;;;13.80;5.25;;;1.50;99.90;;;2.49;100.00;100122.94;5058079;28;20094;-73
2023/04/12 00:31:30;;;;;;;11.15;5.00;;;1.50;99.90;;;2.49;100.00;100113.00;5058813;28;20032;-73
2023/04/12 00:33:57;;;;;;;12.90;5.60;;;1.50;99.90;;;2.46;100.00;100104.47;5033341;28;20476;-73
2023/04/12 00:36:26;;;;;;;12.35;5.32;;;1.50;99.90;;;2.51;100.00;100119.06;5077219;28;20559;-73
2023/04/12 00:38:51;;;;;;;10.35;5.35;;;1.50;99.90;;;2.55;100.00;100114.16;5066004;28;20028;-73
2023/04/12 00:41:17;;;;;;;13.10;5.50;;;1.60;99.90;;;2.56;100.00;100097.84;5058015;28;20484;-73
2023/04/12 00:43:43;;;;;;;13.43;5.80;;;1.70;99.90;;;2.68;100.00;100103.66;5039187;28;20029;-73
2023/04/12 00:46:11;;;;;;;13.27;5.88;;;1.80;99.90;;;2.80;100.00;100101.38;5062831;28;20482;-73
2023/04/12 00:48:38;;;;;;;14.32;5.82;;;1.90;99.90;;;2.84;100.00;100091.94;5065348;28;20044;-73
2023/04/12 00:51:06;;;;;;;13.43;6.50;;;2.00;99.90;;;2.90;100.00;100094.91;5059331;28;20455;-73
2023/04/12 00:53:33;;;;;;;11.40;6.22;;;2.20;99.90;;;2.94;100.00;100089.00;5066186;28;20076;-73
2023/04/12 00:56:00;;;;;;;13.35;6.60;;;2.30;99.90;;;3.03;100.00;100087.03;5033469;28;20087;-73
2023/04/12 00:58:26;;;;;;;12.17;6.43;;;2.40;99.90;;;3.12;100.00;100082.44;5062113;28;20041;-73
2023/04/12 01:00:53;;;;;;;18.98;6.32;;;2.40;99.90;;;3.12;100.00;100071.66;5076589;28;20342;-72
2023/04/12 01:03:23;;;;;;;13.50;6.22;;;2.50;99.90;;;3.12;100.00;100072.50;5066106;28;20404;-72
2023/04/12 01:06:28;;;;;;;13.00;5.75;;;2.50;99.90;;;3.05;100.00;100058.09;5061866;28;20041;-72
2023/04/12 01:09:22;;;;;;;11.52;5.97;;;2.50;99.90;;;3.21;100.00;100065.19;5057776;28;20032;-74
2023/04/12 01:12:31;;;;;;;9.68;5.40;;;2.60;99.90;;;3.35;100.00;100077.00;5032052;28;20037;-74
2023/04/12 01:15:12;;;;;;;11.43;4.90;;;2.70;99.90;;;3.42;100.00;100072.56;5066367;28;20032;-74
2023/04/12 01:18:04;;;;;;;11.43;4.30;;;2.80;99.90;;;3.52;100.00;100072.28;5062204;28;20029;-74
2023/04/12 01:20:43;;;;;;;14.20;4.55;;;2.80;99.90;;;3.55;100.00;100057.56;5054777;28;20049;-74
2023/04/12 01:24:01;;;;;;;10.52;4.63;;;2.80;99.90;;;3.60;100.00;100045.22;5042305;28;20078;-74
2023/04/12 01:26:47;;;;;;;9.93;4.07;;;2.80;99.90;;;3.50;100.00;100041.13;5005229;28;20041;-75
2023/04/12 01:29:20;;;;;;;8.48;3.83;;;2.80;99.90;;;3.54;100.00;100045.97;5051838;28;20049;-75
2023/04/12 01:32:00;;;;;;;7.57;3.33;;;2.70;99.90;;;3.55;100.00;100033.31;5035601;28;20038;-75
2023/04/12 01:34:30;;;;;;;7.88;3.67;;;2.60;99.90;;;3.48;100.00;100029.69;5057745;28;20032;-75
2023/04/12 01:37:01;;;;;;;13.13;4.25;;;2.50;99.90;;;3.45;100.00;100028.22;5061142;28;20399;-75
2023/04/12 01:39:31;;;;;;;8.90;3.65;;;2.60;99.90;;;3.43;100.00;100019.44;5058656;28;20373;-74
2023/04/12 01:41:57;;;;;;;7.28;3.30;;;2.50;99.90;;;3.41;100.00;100013.41;5056380;28;20036;-75
2023/04/12 01:44:24;;;;;;;9.15;3.42;;;2.50;99.90;;;3.35;100.00;100006.06;5065938;28;20396;-75
2023/04/12 01:46:51;;;;;;;9.27;3.65;;;2.40;99.90;;;3.34;100.00;99999.84;5062452;28;20116;-75
2023/04/12 01:49:20;;;;;;;9.10;3.63;;;2.40;99.90;;;3.33;100.00;99998.16;5065156;28;20477;-74
2023/04/12 01:51:54;;;;;;;7.63;3.70;;;2.40;99.90;;;3.23;100.00;99993.03;5064378;28;20048;-75
2023/04/12 01:54:28;;;;;;;10.50;3.60;;;2.40;99.90;;;3.16;100.00;99970.50;5064932;28;20040;-72
2023/04/12 01:57:01;;;;;;;6.70;3.58;;;2.40;99.90;;;3.24;100.00;99991.16;5048759;28;20120;-74
2023/04/12 01:59:33;;;;;;;12.15;4.25;;;2.40;99.90;;;3.26;100.00;99983.72;5072369;28;20029;-75
2023/04/12 02:02:01;;;;;;;10.13;4.03;;;2.40;99.90;;;3.26;100.00;99984.59;5058429;28;20064;-74
2023/04/12 02:04:28;;;;;;;8.43;4.07;;;2.40;99.90;;;3.18;100.00;99981.94;5064250;28;20121;-74
2023/04/12 02:06:54;;;;;;;9.38;3.92;;;2.50;99.90;;;3.13;100.00;99995.16;5079189;28;20044;-74
2023/04/12 02:09:21;;;;;;;7.80;3.97;;;2.60;99.90;;;3.28;100.00;99987.06;5064504;28;20036;-74
2023/04/12 02:11:47;;;;;;;10.82;4.03;;;2.70;99.90;;;3.26;100.00;99976.50;5064884;28;20083;-74
2023/04/12 02:14:14;;;;;;;8.55;3.70;;;2.80;99.90;;;3.25;100.00;99965.88;5077139;28;20039;-74
2023/04/12 02:16:41;;;;;;;8.60;3.78;;;2.80;99.90;;;3.24;100.00;99962.38;5056919;28;20083;-74
2023/04/12 02:19:09;;;;;;;8.30;3.95;;;2.90;99.90;;;3.24;100.00;99972.28;5058256;28;20045;-74
2023/04/12 02:21:45;;;;;;;9.10;3.92;;;2.90;99.90;;;3.28;100.00;99952.88;5065496;28;20040;-73
2023/04/12 02:24:11;;;;;;;9.77;4.43;;;2.80;99.90;;;3.31;100.00;99947.09;5059622;28;20103;-74
2023/04/12 02:26:38;;;;;;;7.97;3.92;;;2.80;99.90;;;3.36;100.00;99940.31;5063565;28;20037;-74
2023/04/12 02:29:08;;;;;;;8.45;4.07;;;2.80;99.90;;;3.40;100.00;99944.31;5049364;28;20159;-74
2023/04/12 02:31:37;;;;;;;;;;;2.80;99.90;;;3.40;100.00;99936.22;5077663;28;20037;-74
2023/04/12 02:34:05;;;;;;;10.00;3.80;;;2.80;99.90;;;3.42;100.00;99932.31;5032788;28;19924;-74
2023/04/12 02:36:31;;;;;;;8.90;3.90;;;2.80;99.90;;;3.37;100.00;99910.47;5038869;28;20033;-74
2023/04/12 02:38:58;;;;;;;11.63;4.03;;;2.80;99.90;;;3.38;100.00;99909.44;5061241;28;20048;-74
2023/04/12 02:41:25;;;;;;;8.90;4.18;;;2.80;99.90;;;3.37;100.00;99906.94;5043820;28;20040;-74
2023/04/12 02:43:52;;;;;;;11.23;4.10;;;2.80;99.90;;;3.38;100.00;99905.91;5060866;28;20035;-74
2023/04/12 02:46:22;;;;;;;9.88;3.95;;;2.80;99.90;;;3.42;100.00;99905.34;5068856;28;20030;-74
2023/04/12 02:48:53;;;;;;;14.00;4.00;;;2.80;99.90;;;3.46;100.00;99900.44;5068634;28;20033;-74
2023/04/12 02:51:22;;;;;;;7.68;3.35;;;2.90;99.90;;;3.44;100.00;99897.91;5065533;28;20032;-74
2023/04/12 02:53:50;;;;;;;7.47;3.55;;;2.90;99.90;;;3.50;100.00;99895.47;5060594;28;20433;-74
2023/04/12 02:56:20;;;;;;;10.43;3.72;;;3.00;99.90;;;3.62;100.00;99891.28;5067315;28;20476;-74
2023/04/12 02:58:50;;;;;;;7.90;3.60;;;3.10;99.90;;;3.72;100.00;99883.72;5059036;28;20033;-74
2023/04/12 03:01:30;;;;;;;8.93;3.45;;;3.10;99.90;;;3.79;100.00;99883.78;5079552;28;20127;-74
2023/04/12 03:04:15;;;;;;;8.35;3.60;;;3.10;99.90;;;3.77;100.00;99880.44;5040950;28;20520;-74
2023/04/12 03:06:52;;;;;;;11.70;3.58;;;3.10;99.90;;;3.75;100.00;99874.41;5034791;28;20049;-75
2023/04/12 03:09:22;;;;;;;7.28;3.00;;;3.10;99.90;;;3.73;100.00;99854.88;5035608;28;20040;-74
2023/04/12 03:11:48;;;;;;;8.20;2.72;;;3.10;99.90;;;3.85;100.00;99858.72;5069776;28;20036;-74
2023/04/12 03:14:14;;;;;;;9.55;2.90;;;3.20;99.90;;;3.99;100.00;99851.59;5059334;28;20434;-74
2023/04/12 03:16:41;;;;;;;7.78;3.17;;;3.30;99.90;;;4.06;100.00;99840.88;5045676;28;20487;-74
2023/04/12 03:19:13;;;;;;;9.55;2.80;;;3.40;99.90;;;4.06;100.00;99840.88;5060174;28;20109;-75
2023/04/12 03:21:39;;;;;;;12.85;2.78;;;3.40;99.90;;;4.06;100.00;99835.47;5077559;28;20063;-75
2023/04/12 03:24:06;;;;;;;5.18;2.60;;;3.40;99.90;;;4.09;100.00;99818.03;5079309;28;20099;-77
2023/04/12 03:26:34;;;;;;;9.93;2.60;;;3.50;99.90;;;4.23;100.00;99814.44;5055193;28;20396;-75
2023/04/12 03:29:10;;;;;;;11.63;3.00;;;3.50;99.90;;;4.16;100.00;99813.53;5068049;28;20451;-76
2023/04/12 03:31:38;;;;;;;7.15;2.70;;;3.60;99.90;;;4.15;100.00;99807.28;5083773;28;20036;-75
2023/04/12 03:34:07;;;;;;;7.30;2.50;;;3.70;99.90;;;4.13;100.00;99811.25;5075797;28;20391;-76
2023/04/12 03:36:34;;;;;;;7.47;2.38;;;3.80;99.90;;;4.14;100.00;99800.22;5067299;28;20044;-76
2023/04/12 03:39:17;;;;;;;10.02;2.60;;;3.80;99.90;;;4.18;100.00;99789.88;5055753;28;20083;-76
2023/04/12 03:41:47;;;;;;;7.25;2.67;;;3.90;99.90;;;4.12;100.00;99769.06;5061368;28;20034;-76
2023/04/12 03:44:13;;;;;;;7.93;2.60;;;3.90;99.90;;;4.13;100.00;99776.97;5061410;28;20557;-77
2023/04/12 03:46:39;;;;;;;8.77;3.17;;;3.90;99.90;;;4.12;100.00;99777.19;5067278;28;20036;-76
2023/04/12 03:49:09;;;;;;;8.93;3.00;;;3.90;99.90;;;4.13;100.00;99768.03;5076501;28;20171;-76
2023/04/12 03:51:41;;;;;;;7.90;2.50;;;3.80;99.90;;;4.06;100.00;99769.84;5059629;28;20502;-75
2023/04/12 03:54:10;;;;;;;7.70;2.60;;;3.80;99.90;;;4.14;100.00;99764.31;5078324;28;20525;-75
2023/04/12 03:56:44;;;;;;;6.68;2.70;;;3.80;99.90;;;4.12;100.00;99769.06;5054911;28;20070;-75
2023/04/12 03:59:18;;;;;;;7.85;2.83;;;3.80;99.90;;;4.18;100.00;99766.41;5036648;28;20031;-75
2023/04/12 04:01:47;;;;;;;7.72;2.92;;;3.80;99.90;;;4.20;100.00;99757.28;5035321;28;20070;-74
2023/04/12 04:04:14;;;;;;;7.07;2.50;;;3.80;99.90;;;4.02;100.00;99720.81;5061539;28;20029;-75
2023/04/12 04:06:39;;;;;;;8.40;2.45;;;3.80;99.90;;;4.18;100.00;99744.00;5061136;28;20361;-74
2023/04/12 04:09:06;;;;;;;7.32;3.20;;;3.80;99.90;;;4.17;100.00;99740.44;5061566;28;20102;-75
2023/04/12 04:11:34;;;;;;;8.63;3.72;;;3.80;99.90;;;4.14;100.00;99729.22;5062702;28;20045;-75
2023/04/12 04:14:06;;;;;;;7.85;2.90;;;3.90;99.90;;;4.24;100.00;99731.53;5060896;28;20040;-75
2023/04/12 04:16:31;;;;;;;9.50;2.88;;;3.90;99.90;;;4.19;100.00;99715.97;5066827;28;20029;-74
2023/04/12 04:18:59;;;;;;;9.00;2.47;;;4.00;99.90;;;4.37;98.07;99718.13;5063445;28;20045;-75
2023/04/12 04:21:25;;;;;;;7.22;2.33;;;4.10;99.90;;;4.36;98.02;99707.53;5049734;28;20052;-74
2023/04/12 04:23:59;;;;;;;8.30;3.05;;;4.10;99.90;;;4.44;97.97;99710.06;5060851;28;20032;-74
2023/04/12 04:26:32;;;;;;;7.78;2.40;;;4.10;99.90;;;4.41;96.92;99705.91;5079000;28;20144;-75
2023/04/12 04:29:05;;;;;;;9.00;2.38;;;4.10;99.90;;;4.38;94.79;99686.56;5069586;28;20128;-75
2023/04/12 04:31:36;;;;;;;5.93;1.98;;;4.20;99.90;;;4.53;94.71;99700.75;5063220;28;20032;-75
2023/04/12 04:34:05;;;;;;;7.43;2.25;;;4.30;99.90;;;4.51;96.05;99694.72;5059413;28;20069;-75
2023/04/12 04:36:34;;;;;;;8.40;2.65;;;4.30;99.90;;;4.51;95.69;99692.03;5048934;28;20036;-75
2023/04/12 04:39:01;;;;;;;4.63;2.28;;;4.30;99.90;;;4.59;95.64;99691.84;5037208;28;20375;-75
2023/04/12 04:41:40;;;;;;;6.80;2.42;;;4.40;99.90;;;4.55;94.15;99678.97;5050694;28;20095;-75
2023/04/12 04:44:09;;;;;;;8.93;2.38;;;4.40;99.90;;;4.70;93.29;99676.94;5057907;28;20123;-75
2023/04/12 04:46:38;;;;;;;7.93;2.25;;;4.50;99.90;;;4.78;92.37;99673.22;5061975;28;20070;-75
2023/04/12 04:49:05;;;;;;;5.55;2.22;;;4.50;99.90;;;4.74;92.16;99664.69;5042335;28;20071;-75
2023/04/12 04:51:31;;;;;;;5.82;1.55;;;4.50;99.90;;;4.84;91.12;99680.53;5052509;28;20466;-74
2023/04/12 04:54:00;;;;;;;8.48;2.10;;;4.60;99.90;;;4.87;90.18;99668.47;5033465;28;20026;-75
2023/04/12 04:56:27;;;;;;;5.97;2.20;;;4.60;99.90;;;4.83;92.04;99665.34;5065337;28;20044;-75
2023/04/12 04:58:53;;;;;;;5.65;1.90;;;4.60;99.90;;;4.88;92.48;99659.34;5064463;28;20141;-75
2023/04/12 05:01:24;;;;;;;5.45;2.03;;;4.50;99.90;;;5.02;89.76;99660.19;5047606;28;20384;-75
2023/04/12 05:03:50;;;;;;;7.38;2.30;;;4.60;99.90;;;5.17;87.64;99651.91;5038137;28;20041;-75
2023/04/12 05:06:19;;;;;;;5.72;2.10;;;4.80;99.90;;;5.20;87.62;99650.69;5075576;28;20463;-75
2023/04/12 05:08:44;;;;;;;5.03;1.90;;;4.80;99.90;;;5.38;87.15;99656.28;5063002;28;20036;-74
2023/04/12 05:11:13;;;;;;;7.65;1.98;;;4.90;99.90;;;5.38;87.97;99653.59;5076182;28;20037;-75
2023/04/12 05:13:39;;;;;;;6.72;2.05;;;4.90;99.90;;;5.44;87.42;99646.53;5055975;28;20044;-75
2023/04/12 05:16:07;;;;;;;7.38;2.35;;;5.00;99.90;;;5.50;86.47;99637.56;5059517;28;20033;-76
2023/04/12 05:18:33;;;;;;;9.35;2.88;;;5.20;99.90;;;5.69;86.71;99638.59;5056147;28;20231;-75
2023/04/12 05:21:05;;;;;;;8.27;2.38;;;5.20;99.90;;;5.85;87.23;99642.78;5036584;28;20062;-74
2023/04/12 05:23:43;;;;;;;6.80;2.00;;;5.40;99.90;;;6.06;83.62;99629.22;5069611;28;20033;-75
2023/04/12 05:26:11;;;;;;;8.30;2.10;;;5.60;99.90;;;6.27;82.78;99623.53;5051168;28;20029;-75
2023/04/12 05:28:40;;;;;;;6.20;1.80;;;5.80;99.90;;;6.35;79.80;99619.72;5059355;28;20096;-75
2023/04/12 05:31:07;;;;;;;;;;;6.00;99.90;;;6.52;79.23;99614.69;5054396;28;20032;-76
2023/04/12 05:33:36;;;;;;;7.95;1.90;;;6.20;99.90;;;6.52;77.78;99606.56;5043242;28;20296;-75
2023/04/12 05:36:03;;;;;;;6.45;1.95;;;6.30;99.90;;;6.61;77.29;99601.69;5060414;28;20047;-74
2023/04/12 05:38:30;;;;;;;5.40;1.60;;;6.30;99.90;;;6.57;78.42;99582.34;5065269;28;20033;-75
2023/04/12 05:41:03;;;;;;;7.78;2.05;;;6.30;99.90;;;6.65;77.12;99586.69;5065106;28;20045;-75
2023/04/12 05:43:30;;;;;;;6.82;2.20;;;6.40;99.90;;;6.62;77.48;99581.69;5059586;28;20068;-75
2023/04/12 05:45:56;;;;;;;3.78;1.52;;;6.40;99.90;;;6.68;76.63;99590.81;5048857;28;20041;-75
2023/04/12 05:48:22;;;;;;;6.32;1.98;;;6.50;99.90;;;6.59;76.24;99576.69;5057770;28;20083;-75
2023/04/12 05:50:53;;;;;;;7.35;1.67;;;6.40;99.90;;;6.67;76.53;99590.00;5041544;28;20032;-75
2023/04/12 05:53:21;;;;;;;5.10;1.80;;;6.40;99.90;;;6.76;76.99;99580.56;5032312;28;20065;-75
2023/04/12 05:55:46;;;;;;;5.35;1.80;;;6.40;99.90;;;6.79;76.70;99576.59;5020519;28;20048;-75
2023/04/12 05:58:13;;;;;;;5.60;1.73;;;6.50;99.90;;;6.88;77.45;99578.00;5075525;28;20042;-75
2023/04/12 06:00:41;;;;;;;7.70;1.85;;;6.50;99.90;;;6.79;76.72;99565.75;5075479;28;20467;-75
2023/04/12 06:03:09;;;;;;;7.07;2.13;;;6.50;99.90;;;6.87;77.59;99579.03;5063196;28;20491;-75
2023/04/12 06:05:35;;;;;;;5.50;2.00;;;6.50;99.90;;;6.80;79.84;99582.84;5048819;28;20042;-74
2023/04/12 06:08:01;;;;;;;7.80;2.28;;;6.50;99.90;;;6.66;80.17;99580.22;5069565;28;20160;-76
2023/04/12 06:10:27;;;;;;;4.85;2.30;;;6.40;99.90;;;6.61;81.63;99578.16;5060960;28;20476;-75
2023/04/12 06:12:53;;;;;;;6.10;2.13;;;6.30;99.90;;;6.59;80.57;99568.56;5064437;28;20029;-76
2023/04/12 06:15:19;;;;;;;7.55;1.90;;;6.30;99.90;;;6.59;80.70;99560.44;5066471;28;20047;-74
2023/04/12 06:17:50;;;;;;;5.55;2.00;;;6.30;99.90;;;6.69;80.59;99566.22;5066154;28;20032;-75
2023/04/12 06:20:16;;;;;;;8.35;2.20;;;6.30;99.90;;;6.68;80.42;99566.44;5084953;28;20037;-75
2023/04/12 06:22:42;;;;;;;8.13;2.40;;;6.30;99.90;;;6.77;80.00;99551.59;5040513;28;20044;-75
2023/04/12 06:25:09;;;;;;;6.03;2.58;;;6.40;99.90;;;6.86;80.02;99549.44;5080889;28;20876;-75
2023/04/12 06:27:35;;;;;;;4.15;2.00;;;6.50;99.90;;;6.95;79.91;99550.00;5076946;28;20038;-75
2023/04/12 06:30:05;;;;;;;8.43;2.10;;;6.50;99.90;;;7.20;80.96;99541.88;5061991;28;20484;-75
2023/04/12 06:32:34;;;;;;;5.97;2.08;;;6.70;99.90;;;7.32;78.62;99542.81;5084747;28;20127;-75
2023/04/12 06:35:00;;;;;;;4.90;2.17;;;6.80;99.90;;;7.40;78.24;99540.84;5067198;28;20031;-76
2023/04/12 06:37:26;;;;;;;7.22;2.33;;;7.00;99.90;;;7.59;78.80;99542.56;5084373;28;20063;-75
2023/04/12 06:39:52;;;;;;;5.10;2.20;;;7.10;99.90;;;7.87;78.86;99532.25;5067191;28;20033;-75
2023/04/12 06:42:18;;;;;;;9.45;2.03;;;7.40;99.90;;;8.15;75.06;99512.69;5065258;28;20462;-76
2023/04/12 06:44:43;;;;;;;3.92;1.50;;;7.80;99.90;;;8.56;70.30;99495.88;5066094;28;20032;-78
2023/04/12 06:47:09;;;;;;;3.22;1.40;;;8.30;99.90;;;8.91;69.99;99489.69;5059556;28;20359;-76
2023/04/12 06:49:35;;;;;;;6.07;1.98;;;8.60;99.90;;;9.10;68.05;99479.50;5057920;28;20037;-76
2023/04/12 06:52:00;;;;;;;5.75;1.85;;;8.90;99.90;;;9.19;66.56;99466.41;5063419;28;20502;-76
2023/04/12 06:54:26;;;;;;;6.13;1.83;;;9.10;99.90;;;9.57;67.09;99481.41;5064525;28;20082;-75
2023/04/12 06:56:52;;;;;;;5.80;1.83;;;9.30;99.90;;;9.76;66.78;99467.63;5060411;28;20498;-75
2023/04/12 06:59:17;;;;;;;8.32;2.05;;;9.60;99.90;;;9.73;65.95;99439.00;5062310;28;20035;-77
2023/04/12 07:01:43;;;;;;;6.47;2.10;;;9.60;99.90;;;9.66;65.97;99440.19;5061544;28;20118;-77
2023/04/12 07:04:10;;;;;;;7.72;2.10;;;9.70;99.90;;;9.83;66.59;99448.44;5060032;28;20132;-77
2023/04/12 07:06:36;;;;;;;9.98;1.70;;;9.70;99.90;;;9.80;66.20;99457.91;5063571;28;20033;-78
2023/04/12 07:09:03;;;;;;;7.65;1.88;;;9.70;99.90;;;9.86;66.26;99462.41;5058172;28;20439;-77
2023/04/12 07:11:30;;;;;;;6.82;1.52;;;9.70;99.90;;;9.81;67.26;99426.88;5080088;28;20139;-77
2023/04/12 07:13:57;;;;;;;8.55;1.88;;;9.70;99.90;;;9.76;65.97;99449.41;5063112;28;20123;-77
2023/04/12 07:16:24;;;;;;;8.18;1.70;;;9.70;99.90;;;9.87;67.08;99455.91;5059165;28;20025;-75
2023/04/12 07:18:50;;;;;;;6.55;1.75;;;9.70;99.90;;;9.82;67.35;99460.41;5034538;28;20056;-77
2023/04/12 07:21:16;;;;;;;9.60;1.75;;;9.70;99.90;;;9.72;67.35;99436.50;5054917;28;20395;-77
2023/04/12 07:23:43;;;;;;;4.47;1.83;;;9.60;99.90;;;9.73;68.52;99433.56;5058813;28;20040;-77
2023/04/12 07:26:09;;;;;;;4.13;1.50;;;9.60;99.90;;;9.75;69.38;99425.13;5064306;28;20488;-75
2023/04/12 07:28:35;;;;;;;5.65;1.40;;;9.70;99.90;;;9.81;69.42;99435.03;5068450;28;20052;-76
2023/04/12 07:31:04;;;;;;;5.20;1.70;;;9.70;99.90;;;9.85;69.27;99432.69;5061916;28;20078;-78
2023/04/12 07:33:30;;;;;;;5.28;1.70;;;9.70;99.90;;;9.75;69.14;99438.75;5063948;28;20071;-76
2023/04/12 07:35:56;;;;;;;3.17;1.23;;;9.70;99.90;;;9.72;69.30;99403.81;5061302;28;20025;-78
2023/04/12 07:38:22;;;;;;;4.85;1.42;;;9.70;99.90;;;9.96;67.74;99420.09;5054099;28;20442;-78
2023/04/12 07:40:47;;;;;;;5.22;1.50;;;9.80;99.90;;;10.00;67.79;99408.47;5052976;28;20048;-77
2023/04/12 07:43:15;;;;;;;6.93;1.90;;;9.90;99.90;;;10.46;67.72;99413.94;5068690;28;20067;-76
2023/04/12 07:45:41;;;;;;;5.07;1.63;;;10.20;99.90;;;10.48;66.90;99386.44;5071204;28;20028;-79
2023/04/12 07:48:07;;;;;;;6.10;1.50;;;10.40;99.90;;;10.81;66.18;99394.84;5053436;28;21105;-78
2023/04/12 07:50:33;;;;;;;6.30;1.90;;;10.60;99.90;;;10.85;65.76;99387.81;5053453;28;20044;-79
2023/04/12 07:53:22;;;;;;;5.18;1.55;;;10.70;99.90;;;11.01;64.95;99381.53;5052409;28;20543;-78
2023/04/12 07:55:49;;;;;;;5.80;1.75;;;10.80;99.90;;;11.62;68.25;99377.94;5059294;28;20036;-77
2023/04/12 07:58:16;;;;;;;5.88;1.70;;;11.20;99.90;;;11.89;63.08;99357.22;5061691;28;20466;-78
2023/04/12 08:00:46;;;;;;;4.32;1.65;;;11.70;99.90;;;12.10;61.51;99336.41;5065252;28;20438;-78
2023/04/12 08:03:14;;;;;;;6.38;1.83;;;12.00;99.90;;;12.37;63.23;99366.47;5041559;28;20071;-77
2023/04/12 08:05:40;;;;;;;5.20;1.75;;;12.20;99.90;;;12.01;60.53;99343.44;5067372;28;20174;-78
2023/04/12 08:08:08;;;;;;;5.40;1.50;;;12.10;99.90;;;11.78;62.08;99361.75;5082886;28;20552;-76
2023/04/12 08:10:35;;;;;;;8.82;2.13;;;11.80;99.90;;;11.46;61.81;99341.44;5066587;28;20040;-76
2023/04/12 08:13:03;;;;;;;6.67;1.60;;;11.50;99.90;;;11.61;62.49;99329.06;5067515;28;20399;-76
2023/04/12 08:15:28;;;;;;;4.85;1.85;;;11.50;99.90;;;11.48;62.43;99322.06;5055995;28;20557;-77
2023/04/12 08:17:54;;;;;;;6.40;1.58;;;11.50;99.90;;;11.05;62.81;99322.63;5060927;28;20044;-75
2023/04/12 08:20:20;;;;;;;8.25;1.73;;;11.20;99.90;;;11.15;63.07;99332.88;5056293;28;20045;-76
2023/04/12 08:22:47;;;;;;;5.00;1.63;;;11.20;99.90;;;11.12;64.25;99327.06;5053095;28;20040;-76
2023/04/12 08:25:13;;;;;;;4.45;1.65;;;11.10;99.90;;;11.05;63.94;99328.09;5053664;28;20614;-75
2023/04/12 08:27:41;;;;;;;4.63;1.63;;;11.10;99.90;;;11.40;65.00;99319.78;5054749;28;20037;-76
2023/04/12 08:30:10;;;;;;;4.55;1.50;;;11.20;99.90;;;11.03;62.67;99321.25;5057366;28;20488;-75
2023/04/12 08:32:36;;;;;;;3.97;1.33;;;11.10;99.90;;;10.96;63.04;99332.34;5066785;28;20115;-77
2023/04/12 08:35:05;;;;;;;4.38;1.38;;;11.00;99.90;;;10.80;62.26;99320.38;5059955;28;20028;-77
2023/04/12 08:37:32;;;;;;;4.10;1.25;;;10.80;99.90;;;10.99;63.63;99309.16;5054362;28;20111;-75
2023/04/12 08:40:08;;;;;;;5.32;1.40;;;10.90;99.90;;;10.83;64.49;99319.03;5052572;28;20551;-76
2023/04/12 08:42:37;;;;;;;4.43;1.58;;;10.70;99.90;;;10.73;63.08;99317.00;5057321;28;20041;-76
2023/04/12 08:45:05;;;;;;;6.82;2.00;;;10.70;99.90;;;10.72;65.35;99324.38;5061613;28;20130;-76
2023/04/12 08:47:33;;;;;;;6.88;1.42;;;10.70;99.90;;;10.68;64.92;99316.91;5029317;28;20527;-76
2023/04/12 08:50:01;;;;;;;5.50;1.50;;;10.60;99.90;;;10.64;66.66;99317.41;5052470;28;20033;-76
2023/04/12 08:52:27;;;;;;;5.75;1.35;;;10.60;99.90;;;10.43;66.46;99289.03;5063692;28;20041;-76
2023/04/12 08:54:55;;;;;;;7.35;1.90;;;10.40;99.90;;;10.20;68.67;99309.06;5063582;28;20366;-77
2023/04/12 08:57:21;;;;;;;6.85;1.80;;;10.20;99.90;;;9.76;70.44;99301.50;5064886;28;20408;-76
2023/04/12 08:59:51;;;;;;;4.85;1.63;;;9.90;99.90;;;9.82;77.64;99326.94;5053909;28;20056;-76
2023/04/12 09:02:17;;;;;;;6.75;1.80;;;9.60;99.90;;;9.53;79.58;99324.22;5066021;28;20158;-77
2023/04/12 09:04:48;;;;;;;3.75;1.60;;;9.50;99.90;;;9.32;79.21;99327.34;5054327;28;20040;-76
2023/04/12 09:07:15;;;;;;;3.42;1.63;;;9.30;99.90;;;9.22;82.17;99318.97;5062298;28;20033;-77
2023/04/12 09:09:46;;;;;;;6.85;1.60;;;9.10;99.90;;;9.17;82.47;99317.00;5051538;28;20110;-77
2023/04/12 09:12:14;;;;;;;4.13;1.55;;;9.10;99.90;;;9.06;85.65;99306.94;5053925;28;20072;-77
2023/04/12 09:14:43;;;;;;;4.47;1.98;;;9.00;99.90;;;8.95;87.24;99316.78;5052368;28;20122;-76
2023/04/12 09:17:27;;;;;;;4.50;2.00;;;8.90;99.90;;;8.89;88.81;99302.25;5053873;28;20508;-75
2023/04/12 09:19:56;;;;;;;6.55;2.05;;;8.80;99.90;;;8.86;89.21;99293.72;5069709;28;20053;-76
2023/04/12 09:22:37;;;;;;;5.53;1.88;;;8.70;99.90;;;8.84;89.23;99293.16;5046627;28;20040;-78
2023/04/12 09:25:03;;;;;;;6.20;2.00;;;8.70;99.90;;;8.89;92.47;99301.41;5050462;28;20063;-76
2023/04/12 09:27:44;;;;;;;4.38;1.80;;;8.70;99.90;;;8.68;91.31;99279.19;5052301;28;20035;-76
2023/04/12 09:30:10;;;;;;;5.72;2.10;;;8.60;99.90;;;8.80;90.95;99281.91;5050389;28;20086;-77
2023/04/12 09:32:36;;;;;;;6.32;2.05;;;8.60;99.90;;;8.75;90.54;99260.88;5055016;28;20035;-77
2023/04/12 09:35:04;;;;;;;8.18;2.28;;;8.60;99.90;;;8.78;92.61;99271.28;5060617;28;20037;-75
2023/04/12 09:37:30;;;;;;;6.22;2.22;;;8.60;99.90;;;8.91;94.27;99282.97;5060579;28;20054;-77
2023/04/12 09:40:06;;;;;;;5.63;2.00;;;8.60;99.90;;;8.79;94.65;99277.53;5055247;28;20024;-77
2023/04/12 09:42:50;;;;;;;7.95;2.00;;;8.50;99.90;;;8.60;94.76;99250.47;5051365;28;20036;-76
2023/04/12 09:45:24;;;;;;;4.93;1.90;;;8.50;99.90;;;8.70;96.00;99268.91;5048956;28;20029;-77
2023/04/12 09:47:50;;;;;;;5.47;1.70;;;8.50;99.90;;;8.74;97.08;99264.66;5055308;28;20036;-78
2023/04/12 09:50:22;;;;;;;7.18;1.92;;;8.40;99.90;;;8.73;99.15;99273.06;5056417;28;20038;-79
2023/04/12 09:52:48;;;;;;;4.88;1.92;;;8.40;99.90;;;8.68;96.83;99249.28;5071055;28;20064;-79
2023/04/12 09:55:16;;;;;;;4.68;1.75;;;8.50;99.90;;;8.61;97.21;99243.97;5063078;28;20036;-79
2023/04/12 09:57:44;;;;;;;5.03;1.92;;;8.50;99.90;;;8.63;99.95;99247.31;5061392;28;20041;-80
2023/04/12 10:00:13;;;;;;;;;;;8.50;99.90;;;8.77;100.00;99249.75;5067130;28;20077;-78
2023/04/12 10:02:42;;;;;;;7.03;2.30;;;8.50;99.90;;;8.79;100.00;99244.91;5059972;28;20305;-77
2023/04/12 10:05:13;;;;;;;6.20;1.67;;;8.50;99.90;;;8.71;100.00;99243.38;5058403;28;20286;-77
2023/04/12 10:07:42;;;;;;;6.72;2.13;;;8.50;99.90;;;8.54;100.00;99210.66;5056718;28;20496;-77
2023/04/12 10:10:11;;;;;;;4.57;2.15;;;8.40;99.90;;;8.84;100.00;99239.56;5063293;28;20390;-78
2023/04/12 10:12:40;;;;;;;6.72;2.83;;;8.50;99.90;;;8.76;100.00;99229.06;5064080;28;20207;-78
2023/04/12 10:15:12;;;;;;;7.97;2.30;;;8.50;99.90;;;8.85;100.00;99234.97;5063620;28;20153;-79
2023/04/12 10:17:52;;;;;;;7.25;2.88;;;8.50;99.90;;;8.65;100.00;99217.16;5061441;28;20719;-78
2023/04/12 10:20:21;;;;;;;4.28;2.05;;;8.40;99.90;;;8.73;100.00;99229.56;5052985;28;20473;-78
2023/04/12 10:22:52;;;;;;;5.55;1.90;;;8.50;99.90;;;8.53;100.00;99208.19;5050915;28;20044;-77
2023/04/12 10:25:24;;;;;;;4.53;2.00;;;8.40;99.90;;;8.49;100.00;99194.22;5045395;28;20115;-76
2023/04/12 10:27:50;;;;;;;6.53;1.98;;;8.40;99.90;;;8.56;100.00;99216.69;5049886;28;20040;-76
2023/04/12 10:30:30;;;;;;;6.47;2.10;;;8.40;99.90;;;8.66;100.00;99218.00;5052592;28;20572;-76
2023/04/12 10:33:02;;;;;;;4.50;1.80;;;8.40;99.90;;;8.78;100.00;99208.75;5057707;28;20056;-75
2023/04/12 10:35:29;;;;;;;5.85;1.95;;;8.50;99.90;;;8.83;100.00;99191.69;5060385;28;20033;-75